createdAt,value
2022-12-24T00:00:12.586Z,101238.38
2022-12-24T00:02:42.221Z,101234.63
2022-12-24T00:05:14.916Z,101240.41
2022-12-24T00:07:44.437Z,101227.44
2022-12-24T00:10:13.314Z,101215.38
2022-12-24T00:12:42.082Z,101207.66
2022-12-24T00:15:11.067Z,101199.28
2022-12-24T00:17:44.091Z,101206.22
2022-12-24T00:20:12.362Z,101209.09
2022-12-24T00:22:41.138Z,101203.97
2022-12-24T00:25:10.658Z,101203.69
2022-12-24T00:27:38.657Z,101205.53
2022-12-24T00:30:11.430Z,101198.03
2022-12-24T00:32:39.833Z,101203.63
2022-12-24T00:35:10.231Z,101197.06
2022-12-24T00:37:38.018Z,101194.63
2022-12-24T00:40:07.800Z,101190.13
2022-12-24T00:42:36.025Z,101185.91
2022-12-24T00:45:11.584Z,101184.72
2022-12-24T00:47:42.674Z,101182.06
2022-12-24T00:50:12.741Z,101177.06
2022-12-24T00:52:43.590Z,101180.19
2022-12-24T00:55:14.252Z,101174.31
2022-12-24T00:57:43.065Z,101172.06
2022-12-24T01:00:12.438Z,101173.16
2022-12-24T01:02:43.402Z,101173.44
2022-12-24T01:05:12.794Z,101168.50
2022-12-24T01:07:45.113Z,101164.13
2022-12-24T01:10:20.310Z,101161.72
2022-12-24T01:12:52.510Z,101162.44
2022-12-24T01:15:21.520Z,101175.25
2022-12-24T01:17:52.095Z,101172.75
2022-12-24T01:20:23.489Z,101165.81
2022-12-24T01:22:52.418Z,101170.38
2022-12-24T01:25:21.414Z,101158.75
2022-12-24T01:27:50.210Z,101151.28
2022-12-24T01:30:19.168Z,101155.56
2022-12-24T01:32:47.983Z,101156.69
2022-12-24T01:35:16.258Z,101159.91
2022-12-24T01:37:44.993Z,101158.31
2022-12-24T01:40:37.544Z,101152.56
2022-12-24T01:43:28.988Z,101157.03
2022-12-24T01:46:04.055Z,101164.59
2022-12-24T01:48:54.367Z,101158.69
2022-12-24T01:51:39.580Z,101163.25
2022-12-24T01:54:43.815Z,101165.81
2022-12-24T01:57:28.536Z,101159.03
2022-12-24T02:00:01.041Z,101155.06
2022-12-24T02:02:34.663Z,101152.63
2022-12-24T02:05:17.141Z,101155.97
2022-12-24T02:07:46.881Z,101147.19
2022-12-24T02:10:16.209Z,101146.38
2022-12-24T02:12:46.811Z,101143.72
2022-12-24T02:15:18.505Z,101143.72
2022-12-24T02:18:28.412Z,101146.53
2022-12-24T02:21:33.459Z,101147.69
2022-12-24T02:24:13.099Z,101150.09
2022-12-24T02:27:19.346Z,101146.09
2022-12-24T02:30:13.021Z,101147.81
2022-12-24T02:33:19.563Z,101150.63
2022-12-24T02:35:51.154Z,101164.97
2022-12-24T02:38:41.829Z,101159.66
2022-12-24T02:41:25.419Z,101154.75
2022-12-24T02:43:57.655Z,101151.56
2022-12-24T02:46:33.002Z,101153.41
2022-12-24T02:49:04.500Z,101150.13
2022-12-24T02:51:33.004Z,101149.84
2022-12-24T02:54:02.656Z,101154.75
2022-12-24T02:56:38.999Z,101155.53
2022-12-24T02:59:35.016Z,101154.81
2022-12-24T03:02:27.042Z,101151.19
2022-12-24T03:05:21.853Z,101153.34
2022-12-24T03:08:30.898Z,101160.28
2022-12-24T03:11:18.472Z,101152.19
2022-12-24T03:13:51.289Z,101150.50
2022-12-24T03:16:27.757Z,101152.16
2022-12-24T03:19:00.470Z,101149.63
2022-12-24T03:21:31.565Z,101151.72
2022-12-24T03:24:01.491Z,101157.78
2022-12-24T03:26:33.080Z,101154.69
2022-12-24T03:29:09.142Z,101149.41
2022-12-24T03:31:51.614Z,101146.50
2022-12-24T03:34:21.618Z,101147.72
2022-12-24T03:36:52.822Z,101146.06
2022-12-24T03:39:22.983Z,101143.66
2022-12-24T03:41:53.004Z,101138.13
2022-12-24T03:44:22.137Z,101146.34
2022-12-24T03:46:49.798Z,101146.75
2022-12-24T03:49:19.433Z,101145.97
2022-12-24T03:51:50.607Z,101151.81
2022-12-24T03:54:19.083Z,101144.38
2022-12-24T03:56:49.329Z,101140.28
2022-12-24T03:59:18.088Z,101137.53
2022-12-24T04:01:47.248Z,101137.78
2022-12-24T04:04:16.707Z,101135.94
2022-12-24T04:06:45.593Z,101144.53
2022-12-24T04:09:16.133Z,101142.59
2022-12-24T04:11:43.881Z,101149.34
2022-12-24T04:14:12.570Z,101147.31
2022-12-24T04:16:41.030Z,101165.56
2022-12-24T04:19:10.246Z,101146.09
2022-12-24T04:21:39.084Z,101162.38
2022-12-24T04:24:06.953Z,101162.22
2022-12-24T04:26:35.983Z,101157.31
2022-12-24T04:29:04.684Z,101152.78
2022-12-24T04:31:33.332Z,101153.94
2022-12-24T04:34:02.147Z,101154.91
2022-12-24T04:36:31.547Z,101153.34
2022-12-24T04:39:00.166Z,101165.97
2022-12-24T04:41:28.974Z,101151.03
2022-12-24T04:44:00.217Z,101151.44
2022-12-24T04:46:33.251Z,101150.13
2022-12-24T04:49:01.459Z,101143.78
2022-12-24T04:51:32.175Z,101145.22
2022-12-24T04:54:01.226Z,101146.06
2022-12-24T04:56:31.860Z,101146.66
2022-12-24T04:59:02.021Z,101142.72
2022-12-24T05:01:33.177Z,101149.84
2022-12-24T05:04:02.694Z,101153.91
2022-12-24T05:06:32.857Z,101156.97
2022-12-24T05:09:01.943Z,101148.28
2022-12-24T05:11:31.091Z,101151.66
2022-12-24T05:14:00.190Z,101146.31
2022-12-24T05:16:29.544Z,101149.59
2022-12-24T05:18:57.480Z,101153.59
2022-12-24T05:21:26.973Z,101147.31
2022-12-24T05:24:14.622Z,101150.81
2022-12-24T05:26:56.081Z,101154.94
2022-12-24T05:29:24.134Z,101146.06
2022-12-24T05:31:53.503Z,101160.63
2022-12-24T05:34:22.940Z,101156.97
2022-12-24T05:36:52.290Z,101148.16
2022-12-24T05:39:26.274Z,101156.06
2022-12-24T05:41:55.054Z,101154.72
2022-12-24T05:44:24.224Z,101151.66
2022-12-24T05:46:51.919Z,101158.94
2022-12-24T05:49:21.016Z,101171.81
2022-12-24T05:51:52.469Z,101171.56
2022-12-24T05:54:22.038Z,101178.34
2022-12-24T05:56:50.072Z,101175.66
2022-12-24T05:59:19.209Z,101172.75
2022-12-24T06:01:49.627Z,101174.38
2022-12-24T06:04:21.788Z,101179.69
2022-12-24T06:06:56.998Z,101181.47
2022-12-24T06:09:26.170Z,101176.16
2022-12-24T06:11:56.132Z,101186.56
2022-12-24T06:14:25.320Z,101188.50
2022-12-24T06:16:54.343Z,101186.81
2022-12-24T06:19:23.952Z,101180.41
2022-12-24T06:21:53.769Z,101189.69
2022-12-24T06:24:22.046Z,101190.53
2022-12-24T06:26:51.345Z,101188.00
2022-12-24T06:29:20.372Z,101198.09
2022-12-24T06:31:49.282Z,101193.34
2022-12-24T06:34:17.187Z,101189.13
2022-12-24T06:36:46.455Z,101185.22
2022-12-24T06:39:15.670Z,101193.59
2022-12-24T06:41:46.557Z,101185.97
2022-12-24T06:44:15.888Z,101189.69
2022-12-24T06:46:45.632Z,101202.06
2022-12-24T06:49:14.592Z,101194.47
2022-12-24T06:51:45.922Z,101192.25
2022-12-24T06:54:15.883Z,101188.66
2022-12-24T06:56:44.994Z,101187.34
2022-12-24T06:59:13.021Z,101188.03
2022-12-24T07:01:41.998Z,101188.22
2022-12-24T07:04:16.215Z,101187.34
2022-12-24T07:06:49.656Z,101184.56
2022-12-24T07:09:17.428Z,101183.00
2022-12-24T07:11:48.380Z,101177.81
2022-12-24T07:14:16.206Z,101170.13
2022-12-24T07:16:53.836Z,101172.38
2022-12-24T07:19:30.191Z,101171.00
2022-12-24T07:21:59.008Z,101166.63
2022-12-24T07:24:28.300Z,101170.84
2022-12-24T07:26:56.257Z,101182.22
2022-12-24T07:29:27.349Z,101185.88
2022-12-24T07:31:57.165Z,101179.69
2022-12-24T07:34:34.594Z,101183.19
2022-12-24T07:37:04.034Z,101181.25
2022-12-24T07:39:31.783Z,101175.19
2022-12-24T07:42:00.270Z,101172.66
2022-12-24T07:44:30.172Z,101168.44
2022-12-24T07:46:58.289Z,101171.13
2022-12-24T07:49:27.639Z,101166.75
2022-12-24T07:51:56.121Z,101168.13
2022-12-24T07:54:36.572Z,101171.31
2022-12-24T07:57:05.136Z,101165.28
2022-12-24T07:59:34.415Z,101162.22
2022-12-24T08:02:03.885Z,101170.44
2022-12-24T08:04:34.235Z,101165.56
2022-12-24T08:07:07.285Z,101170.44
2022-12-24T08:09:37.553Z,101175.66
2022-12-24T08:12:07.954Z,101174.00
2022-12-24T08:14:36.963Z,101179.59
2022-12-24T08:17:06.969Z,101173.97
2022-12-24T08:19:37.692Z,101174.81
2022-12-24T08:22:07.880Z,101180.72
2022-12-24T08:24:37.857Z,101168.91
2022-12-24T08:27:06.101Z,101174.28
2022-12-24T08:29:35.347Z,101171.75
2022-12-24T08:32:04.723Z,101167.22
2022-12-24T08:34:32.603Z,101162.84
2022-12-24T08:37:01.755Z,101165.25
2022-12-24T08:39:29.768Z,101158.78
2022-12-24T08:41:58.745Z,101164.44
2022-12-24T08:44:27.126Z,101163.88
2022-12-24T08:46:55.835Z,101168.66
2022-12-24T08:49:26.571Z,101164.00
2022-12-24T08:51:55.741Z,101154.88
2022-12-24T08:54:26.224Z,101161.66
2022-12-24T08:56:57.396Z,101153.22
2022-12-24T08:59:25.038Z,101162.47
2022-12-24T09:01:55.185Z,101157.97
2022-12-24T09:04:24.556Z,101163.13
2022-12-24T09:06:55.086Z,101157.69
2022-12-24T09:09:24.423Z,101152.06
2022-12-24T09:11:53.997Z,101149.78
2022-12-24T09:14:22.894Z,101147.94
2022-12-24T09:16:54.021Z,101147.00
2022-12-24T09:19:26.503Z,101151.22
2022-12-24T09:21:55.511Z,101148.69
2022-12-24T09:24:24.085Z,101142.84
2022-12-24T09:26:57.506Z,101139.84
2022-12-24T09:29:25.998Z,101135.47
2022-12-24T09:31:55.390Z,101137.75
2022-12-24T09:34:30.382Z,101126.34
2022-12-24T09:37:01.453Z,101117.09
2022-12-24T09:39:31.060Z,101113.81
2022-12-24T09:42:15.322Z,101110.75
2022-12-24T09:45:34.722Z,101112.03
2022-12-24T09:48:14.151Z,101115.31
2022-12-24T09:51:08.489Z,101124.22
2022-12-24T09:53:57.115Z,101125.91
2022-12-24T09:56:28.898Z,101117.78
2022-12-24T09:59:02.855Z,101114.41
2022-12-24T10:01:34.652Z,101115.53
2022-12-24T10:04:19.491Z,101117.78
2022-12-24T10:07:04.994Z,101109.13
2022-12-24T10:09:52.537Z,101103.41
2022-12-24T10:12:55.887Z,101107.31
2022-12-24T10:15:55.984Z,101115.72
2022-12-24T10:18:57.527Z,101104.81
2022-12-24T10:21:44.680Z,101101.78
2022-12-24T10:24:24.464Z,101101.38
2022-12-24T10:27:17.427Z,101101.88
2022-12-24T10:29:51.583Z,101105.38
2022-12-24T10:32:28.834Z,101100.31
2022-12-24T10:35:15.401Z,101105.66
2022-12-24T10:37:48.175Z,101106.22
2022-12-24T10:40:50.236Z,101088.31
2022-12-24T10:43:22.921Z,101095.63
2022-12-24T10:46:07.266Z,101086.78
2022-12-24T13:50:36.086Z,101133.41
2022-12-24T14:12:54.437Z,101132.72
2022-12-24T14:16:05.858Z,101133.19
2022-12-24T14:18:53.063Z,101133.19
2022-12-24T14:21:45.571Z,101139.22
2022-12-24T14:33:39.030Z,101145.69
2022-12-24T14:36:15.203Z,101145.94
2022-12-24T14:42:29.340Z,101147.66
2022-12-24T14:45:17.098Z,101163.69
2022-12-24T14:48:14.842Z,101163.13
2022-12-24T14:51:21.888Z,101157.91
2022-12-24T14:54:23.551Z,101159.47
2022-12-24T14:57:29.291Z,101151.56
2022-12-24T15:03:26.794Z,101154.38
2022-12-24T15:06:14.367Z,101156.19
2022-12-24T15:08:52.962Z,101151.00
2022-12-24T15:34:45.749Z,101160.84
2022-12-24T15:40:25.348Z,101163.94
2022-12-24T15:43:05.383Z,101174.34
2022-12-24T15:45:50.111Z,101169.00
2022-12-24T15:48:27.955Z,101171.41
2022-12-24T15:51:05.596Z,101163.94
2022-12-24T15:54:07.124Z,101171.25
2022-12-24T15:56:45.021Z,101165.75
2022-12-24T16:12:48.915Z,101179.97
2022-12-24T16:18:59.768Z,101176.59
2022-12-24T16:37:16.021Z,101178.56
2022-12-24T16:52:41.955Z,101195.44
2022-12-24T17:22:05.817Z,101186.72
2022-12-24T18:08:03.242Z,101199.66
2022-12-24T18:20:16.508Z,101202.59
2022-12-24T22:37:51.951Z,101268.16
2022-12-24T22:46:29.355Z,101280.44
2022-12-24T22:49:00.631Z,101283.13
2022-12-24T22:51:32.742Z,101283.31
2022-12-24T22:54:09.286Z,101289.34
2022-12-24T22:56:55.548Z,101305.19
2022-12-24T22:59:27.080Z,101306.09
2022-12-24T23:02:10.852Z,101301.28
2022-12-24T23:04:48.887Z,101304.41
2022-12-24T23:07:21.082Z,101305.09
2022-12-24T23:09:49.579Z,101303.19
2022-12-24T23:12:39.070Z,101298.59
2022-12-24T23:15:09.518Z,101298.91
2022-12-24T23:17:40.733Z,101302.72
2022-12-24T23:20:11.286Z,101300.88
2022-12-24T23:22:40.783Z,101304.84
2022-12-24T23:25:10.063Z,101303.97
2022-12-24T23:27:41.812Z,101300.44
2022-12-24T23:30:11.556Z,101302.47
2022-12-24T23:32:41.052Z,101308.81
2022-12-24T23:35:10.436Z,101312.41
2022-12-24T23:37:40.155Z,101306.63
2022-12-24T23:40:10.241Z,101320.91
2022-12-24T23:42:42.310Z,101321.00
2022-12-24T23:45:15.123Z,101323.56
2022-12-24T23:47:44.180Z,101320.44
2022-12-24T23:50:15.108Z,101318.34
2022-12-24T23:52:45.431Z,101312.47
2022-12-24T23:55:36.012Z,101317.25
2022-12-24T23:58:06.216Z,101317.41
